sensor_id;sensor_type;location;lat;lon;timestamp;P1;durP1;ratioP1;P2;durP2;ratioP2
16624;SDS011;8426;48.496;9.098;2022-12-18T00:02:14;30.97;;;11.60;;
16624;SDS011;8426;48.496;9.098;2022-12-18T00:07:17;29.67;;;11.07;;
16624;SDS011;8426;48.496;9.098;2022-12-18T00:12:20;28.00;;;10.43;;
16624;SDS011;8426;48.496;9.098;2022-12-18T00:17:25;23.23;;;9.90;;
16624;SDS011;8426;48.496;9.098;2022-12-18T00:22:29;23.37;;;9.77;;
16624;SDS011;8426;48.496;9.098;2022-12-18T00:27:32;29.67;;;11.13;;
16624;SDS011;8426;48.496;9.098;2022-12-18T00:32:37;34.70;;;12.97;;
16624;SDS011;8426;48.496;9.098;2022-12-18T00:37:40;29.87;;;11.80;;
16624;SDS011;8426;48.496;9.098;2022-12-18T00:42:43;33.83;;;11.33;;
16624;SDS011;8426;48.496;9.098;2022-12-18T00:48:01;23.60;;;10.03;;
16624;SDS011;8426;48.496;9.098;2022-12-18T00:53:05;26.80;;;10.00;;
16624;SDS011;8426;48.496;9.098;2022-12-18T00:58:08;28.97;;;11.80;;
16624;SDS011;8426;48.496;9.098;2022-12-18T01:03:14;24.67;;;9.47;;
16624;SDS011;8426;48.496;9.098;2022-12-18T01:08:18;31.03;;;11.13;;
16624;SDS011;8426;48.496;9.098;2022-12-18T01:13:21;31.50;;;11.90;;
16624;SDS011;8426;48.496;9.098;2022-12-18T01:18:26;34.23;;;10.93;;
16624;SDS011;8426;48.496;9.098;2022-12-18T01:23:29;35.20;;;11.93;;
16624;SDS011;8426;48.496;9.098;2022-12-18T01:28:32;33.67;;;10.50;;
16624;SDS011;8426;48.496;9.098;2022-12-18T01:33:37;29.80;;;11.57;;
16624;SDS011;8426;48.496;9.098;2022-12-18T01:38:41;22.17;;;9.43;;
16624;SDS011;8426;48.496;9.098;2022-12-18T01:43:49;25.93;;;10.60;;
16624;SDS011;8426;48.496;9.098;2022-12-18T01:48:56;22.53;;;10.17;;
16624;SDS011;8426;48.496;9.098;2022-12-18T01:54:02;37.60;;;11.57;;
16624;SDS011;8426;48.496;9.098;2022-12-18T01:59:05;22.27;;;10.90;;
16624;SDS011;8426;48.496;9.098;2022-12-18T02:04:21;27.30;;;9.93;;
16624;SDS011;8426;48.496;9.098;2022-12-18T02:09:27;31.47;;;12.57;;
16624;SDS011;8426;48.496;9.098;2022-12-18T02:14:36;34.83;;;11.70;;
16624;SDS011;8426;48.496;9.098;2022-12-18T02:19:47;23.27;;;8.83;;
16624;SDS011;8426;48.496;9.098;2022-12-18T02:25:08;27.83;;;9.73;;
16624;SDS011;8426;48.496;9.098;2022-12-18T02:30:25;29.33;;;11.37;;
16624;SDS011;8426;48.496;9.098;2022-12-18T02:35:31;29.17;;;11.80;;
16624;SDS011;8426;48.496;9.098;2022-12-18T02:40:36;33.10;;;12.10;;
16624;SDS011;8426;48.496;9.098;2022-12-18T02:45:47;26.77;;;10.60;;
16624;SDS011;8426;48.496;9.098;2022-12-18T02:50:55;30.87;;;10.20;;
16624;SDS011;8426;48.496;9.098;2022-12-18T02:56:07;41.70;;;10.90;;
16624;SDS011;8426;48.496;9.098;2022-12-18T03:01:19;33.37;;;12.33;;
16624;SDS011;8426;48.496;9.098;2022-12-18T03:06:32;32.13;;;12.27;;
16624;SDS011;8426;48.496;9.098;2022-12-18T03:11:40;34.60;;;11.83;;
16624;SDS011;8426;48.496;9.098;2022-12-18T03:17:05;38.10;;;11.53;;
16624;SDS011;8426;48.496;9.098;2022-12-18T03:22:12;34.13;;;13.07;;
16624;SDS011;8426;48.496;9.098;2022-12-18T03:27:18;33.87;;;12.60;;
16624;SDS011;8426;48.496;9.098;2022-12-18T03:32:25;38.80;;;12.13;;
16624;SDS011;8426;48.496;9.098;2022-12-18T03:37:33;39.00;;;12.77;;
16624;SDS011;8426;48.496;9.098;2022-12-18T03:42:38;36.90;;;13.73;;
16624;SDS011;8426;48.496;9.098;2022-12-18T03:47:53;41.97;;;12.43;;
16624;SDS011;8426;48.496;9.098;2022-12-18T03:53:04;44.10;;;13.43;;
16624;SDS011;8426;48.496;9.098;2022-12-18T03:58:16;36.37;;;13.37;;
16624;SDS011;8426;48.496;9.098;2022-12-18T04:03:27;37.20;;;12.37;;
16624;SDS011;8426;48.496;9.098;2022-12-18T04:08:33;28.83;;;12.07;;
16624;SDS011;8426;48.496;9.098;2022-12-18T04:13:37;44.63;;;13.47;;
16624;SDS011;8426;48.496;9.098;2022-12-18T04:18:43;32.80;;;11.70;;
16624;SDS011;8426;48.496;9.098;2022-12-18T04:23:47;40.37;;;12.00;;
16624;SDS011;8426;48.496;9.098;2022-12-18T04:28:50;30.40;;;11.77;;
16624;SDS011;8426;48.496;9.098;2022-12-18T04:33:55;36.60;;;13.37;;
16624;SDS011;8426;48.496;9.098;2022-12-18T04:38:58;32.53;;;12.33;;
16624;SDS011;8426;48.496;9.098;2022-12-18T04:44:01;38.07;;;12.13;;
16624;SDS011;8426;48.496;9.098;2022-12-18T04:49:06;35.70;;;12.73;;
16624;SDS011;8426;48.496;9.098;2022-12-18T04:54:11;42.10;;;13.83;;
16624;SDS011;8426;48.496;9.098;2022-12-18T04:59:15;38.63;;;11.10;;
16624;SDS011;8426;48.496;9.098;2022-12-18T05:04:19;26.87;;;10.77;;
16624;SDS011;8426;48.496;9.098;2022-12-18T05:09:23;25.23;;;10.77;;
16624;SDS011;8426;48.496;9.098;2022-12-18T05:14:26;31.57;;;10.37;;
16624;SDS011;8426;48.496;9.098;2022-12-18T05:19:32;18.20;;;8.13;;
16624;SDS011;8426;48.496;9.098;2022-12-18T05:24:35;20.73;;;9.37;;
16624;SDS011;8426;48.496;9.098;2022-12-18T05:29:38;25.53;;;10.03;;
16624;SDS011;8426;48.496;9.098;2022-12-18T05:34:43;27.10;;;10.97;;
16624;SDS011;8426;48.496;9.098;2022-12-18T05:39:46;18.97;;;9.27;;
16624;SDS011;8426;48.496;9.098;2022-12-18T05:44:49;24.37;;;10.27;;
16624;SDS011;8426;48.496;9.098;2022-12-18T05:49:54;21.07;;;10.60;;
16624;SDS011;8426;48.496;9.098;2022-12-18T05:54:58;35.30;;;10.10;;
16624;SDS011;8426;48.496;9.098;2022-12-18T06:00:01;24.37;;;9.93;;
16624;SDS011;8426;48.496;9.098;2022-12-18T06:05:07;17.67;;;8.00;;
16624;SDS011;8426;48.496;9.098;2022-12-18T06:10:10;23.77;;;9.37;;
16624;SDS011;8426;48.496;9.098;2022-12-18T06:15:14;24.43;;;9.00;;
16624;SDS011;8426;48.496;9.098;2022-12-18T06:20:19;23.47;;;8.60;;
16624;SDS011;8426;48.496;9.098;2022-12-18T06:25:23;27.00;;;9.93;;
16624;SDS011;8426;48.496;9.098;2022-12-18T06:30:26;23.33;;;9.63;;
16624;SDS011;8426;48.496;9.098;2022-12-18T06:35:31;26.43;;;8.30;;
16624;SDS011;8426;48.496;9.098;2022-12-18T06:40:35;22.83;;;9.07;;
16624;SDS011;8426;48.496;9.098;2022-12-18T06:45:40;24.13;;;8.90;;
16624;SDS011;8426;48.496;9.098;2022-12-18T06:50:44;19.20;;;6.90;;
16624;SDS011;8426;48.496;9.098;2022-12-18T06:55:48;23.20;;;8.83;;
16624;SDS011;8426;48.496;9.098;2022-12-18T07:00:51;19.03;;;8.77;;
16624;SDS011;8426;48.496;9.098;2022-12-18T07:05:56;25.80;;;9.30;;
16624;SDS011;8426;48.496;9.098;2022-12-18T07:11:02;24.10;;;8.30;;
16624;SDS011;8426;48.496;9.098;2022-12-18T07:16:08;15.50;;;6.60;;
16624;SDS011;8426;48.496;9.098;2022-12-18T07:21:23;21.43;;;7.77;;
16624;SDS011;8426;48.496;9.098;2022-12-18T07:26:28;21.37;;;8.57;;
16624;SDS011;8426;48.496;9.098;2022-12-18T07:31:32;25.13;;;8.07;;
16624;SDS011;8426;48.496;9.098;2022-12-18T07:36:37;26.77;;;7.57;;
16624;SDS011;8426;48.496;9.098;2022-12-18T07:41:40;19.57;;;6.93;;
16624;SDS011;8426;48.496;9.098;2022-12-18T07:46:47;23.30;;;9.73;;
16624;SDS011;8426;48.496;9.098;2022-12-18T07:51:52;27.37;;;10.07;;
16624;SDS011;8426;48.496;9.098;2022-12-18T07:56:57;33.60;;;9.73;;
16624;SDS011;8426;48.496;9.098;2022-12-18T08:02:00;21.07;;;8.27;;
16624;SDS011;8426;48.496;9.098;2022-12-18T08:07:05;19.47;;;8.43;;
16624;SDS011;8426;48.496;9.098;2022-12-18T08:12:09;20.23;;;7.87;;
16624;SDS011;8426;48.496;9.098;2022-12-18T08:17:12;28.33;;;8.83;;
16624;SDS011;8426;48.496;9.098;2022-12-18T08:22:16;22.20;;;9.00;;
16624;SDS011;8426;48.496;9.098;2022-12-18T08:27:20;29.83;;;10.07;;
16624;SDS011;8426;48.496;9.098;2022-12-18T08:32:30;18.53;;;8.87;;
16624;SDS011;8426;48.496;9.098;2022-12-18T08:37:36;22.60;;;10.53;;
16624;SDS011;8426;48.496;9.098;2022-12-18T08:42:40;20.90;;;8.60;;
16624;SDS011;8426;48.496;9.098;2022-12-18T08:48:01;25.00;;;10.20;;
16624;SDS011;8426;48.496;9.098;2022-12-18T08:53:06;26.33;;;9.07;;
16624;SDS011;8426;48.496;9.098;2022-12-18T08:58:09;43.53;;;11.83;;
16624;SDS011;8426;48.496;9.098;2022-12-18T09:03:17;32.97;;;10.73;;
16624;SDS011;8426;48.496;9.098;2022-12-18T09:08:22;29.33;;;13.03;;
16624;SDS011;8426;48.496;9.098;2022-12-18T09:13:28;32.87;;;13.07;;
16624;SDS011;8426;48.496;9.098;2022-12-18T09:18:32;29.20;;;11.30;;
16624;SDS011;8426;48.496;9.098;2022-12-18T09:23:36;54.00;;;19.67;;
16624;SDS011;8426;48.496;9.098;2022-12-18T09:28:40;50.03;;;15.30;;
16624;SDS011;8426;48.496;9.098;2022-12-18T09:33:44;42.90;;;15.00;;
16624;SDS011;8426;48.496;9.098;2022-12-18T09:38:48;45.10;;;17.17;;
16624;SDS011;8426;48.496;9.098;2022-12-18T09:43:52;41.10;;;16.33;;
16624;SDS011;8426;48.496;9.098;2022-12-18T09:48:58;40.20;;;14.10;;
16624;SDS011;8426;48.496;9.098;2022-12-18T09:54:09;34.93;;;14.07;;
16624;SDS011;8426;48.496;9.098;2022-12-18T09:59:18;34.33;;;13.40;;
16624;SDS011;8426;48.496;9.098;2022-12-18T10:04:26;37.37;;;13.90;;
16624;SDS011;8426;48.496;9.098;2022-12-18T10:09:36;40.93;;;13.97;;
16624;SDS011;8426;48.496;9.098;2022-12-18T10:14:50;43.63;;;14.17;;
16624;SDS011;8426;48.496;9.098;2022-12-18T10:20:01;38.10;;;13.83;;
16624;SDS011;8426;48.496;9.098;2022-12-18T10:25:18;35.43;;;14.37;;
16624;SDS011;8426;48.496;9.098;2022-12-18T10:30:25;34.00;;;13.53;;
16624;SDS011;8426;48.496;9.098;2022-12-18T10:35:28;41.17;;;14.70;;
16624;SDS011;8426;48.496;9.098;2022-12-18T10:40:33;35.77;;;13.60;;
16624;SDS011;8426;48.496;9.098;2022-12-18T10:45:59;39.47;;;14.07;;
16624;SDS011;8426;48.496;9.098;2022-12-18T10:51:04;40.27;;;15.40;;
16624;SDS011;8426;48.496;9.098;2022-12-18T10:56:16;33.80;;;14.50;;
16624;SDS011;8426;48.496;9.098;2022-12-18T11:01:23;32.47;;;13.40;;
16624;SDS011;8426;48.496;9.098;2022-12-18T11:06:27;43.90;;;14.73;;
16624;SDS011;8426;48.496;9.098;2022-12-18T11:11:32;45.37;;;15.93;;
16624;SDS011;8426;48.496;9.098;2022-12-18T11:16:42;38.60;;;15.77;;
16624;SDS011;8426;48.496;9.098;2022-12-18T11:22:17;50.40;;;17.97;;
16624;SDS011;8426;48.496;9.098;2022-12-18T11:27:24;45.77;;;17.77;;
16624;SDS011;8426;48.496;9.098;2022-12-18T11:32:32;33.60;;;14.47;;
16624;SDS011;8426;48.496;9.098;2022-12-18T11:37:37;32.77;;;13.70;;
16624;SDS011;8426;48.496;9.098;2022-12-18T11:42:47;38.93;;;14.80;;
16624;SDS011;8426;48.496;9.098;2022-12-18T11:47:56;38.17;;;14.43;;
16624;SDS011;8426;48.496;9.098;2022-12-18T11:53:04;31.03;;;12.47;;
16624;SDS011;8426;48.496;9.098;2022-12-18T11:58:14;38.87;;;14.50;;
16624;SDS011;8426;48.496;9.098;2022-12-18T12:09:19;38.87;;;15.50;;
16624;SDS011;8426;48.496;9.098;2022-12-18T12:14:34;35.20;;;14.00;;
16624;SDS011;8426;48.496;9.098;2022-12-18T12:19:48;36.63;;;12.77;;
16624;SDS011;8426;48.496;9.098;2022-12-18T12:25:04;31.73;;;13.47;;
16624;SDS011;8426;48.496;9.098;2022-12-18T12:30:21;36.40;;;13.63;;
16624;SDS011;8426;48.496;9.098;2022-12-18T12:35:34;34.83;;;13.40;;
16624;SDS011;8426;48.496;9.098;2022-12-18T12:40:51;36.47;;;13.47;;
16624;SDS011;8426;48.496;9.098;2022-12-18T12:46:05;31.50;;;12.70;;
16624;SDS011;8426;48.496;9.098;2022-12-18T12:51:12;30.50;;;14.23;;
16624;SDS011;8426;48.496;9.098;2022-12-18T12:56:19;32.00;;;13.30;;
16624;SDS011;8426;48.496;9.098;2022-12-18T13:01:28;36.03;;;15.03;;
16624;SDS011;8426;48.496;9.098;2022-12-18T13:06:40;33.60;;;15.13;;
16624;SDS011;8426;48.496;9.098;2022-12-18T13:11:48;51.20;;;19.60;;
16624;SDS011;8426;48.496;9.098;2022-12-18T13:17:17;39.57;;;16.27;;
16624;SDS011;8426;48.496;9.098;2022-12-18T13:22:34;36.33;;;14.97;;
16624;SDS011;8426;48.496;9.098;2022-12-18T13:27:46;39.37;;;15.20;;
16624;SDS011;8426;48.496;9.098;2022-12-18T13:44:39;40.50;;;16.10;;
16624;SDS011;8426;48.496;9.098;2022-12-18T13:49:43;38.70;;;17.47;;
16624;SDS011;8426;48.496;9.098;2022-12-18T13:54:49;41.03;;;17.33;;
16624;SDS011;8426;48.496;9.098;2022-12-18T13:59:56;44.70;;;16.37;;
16624;SDS011;8426;48.496;9.098;2022-12-18T14:05:00;40.27;;;17.17;;
16624;SDS011;8426;48.496;9.098;2022-12-18T14:10:12;40.97;;;18.17;;
16624;SDS011;8426;48.496;9.098;2022-12-18T14:15:39;41.97;;;17.17;;
16624;SDS011;8426;48.496;9.098;2022-12-18T14:20:44;43.60;;;16.87;;
16624;SDS011;8426;48.496;9.098;2022-12-18T14:25:55;46.13;;;17.40;;
16624;SDS011;8426;48.496;9.098;2022-12-18T14:31:15;57.73;;;21.93;;
16624;SDS011;8426;48.496;9.098;2022-12-18T14:36:21;46.37;;;20.03;;
16624;SDS011;8426;48.496;9.098;2022-12-18T14:41:27;37.93;;;16.83;;
16624;SDS011;8426;48.496;9.098;2022-12-18T14:46:33;47.43;;;18.50;;
16624;SDS011;8426;48.496;9.098;2022-12-18T14:51:38;39.67;;;16.17;;
16624;SDS011;8426;48.496;9.098;2022-12-18T14:56:43;38.67;;;16.83;;
16624;SDS011;8426;48.496;9.098;2022-12-18T15:01:49;40.30;;;16.37;;
16624;SDS011;8426;48.496;9.098;2022-12-18T15:07:07;39.43;;;16.17;;
16624;SDS011;8426;48.496;9.098;2022-12-18T15:12:22;45.73;;;19.60;;
16624;SDS011;8426;48.496;9.098;2022-12-18T15:17:31;46.77;;;17.53;;
16624;SDS011;8426;48.496;9.098;2022-12-18T15:22:35;43.53;;;16.33;;
16624;SDS011;8426;48.496;9.098;2022-12-18T15:27:45;42.80;;;16.17;;
16624;SDS011;8426;48.496;9.098;2022-12-18T15:32:50;37.23;;;15.07;;
16624;SDS011;8426;48.496;9.098;2022-12-18T15:37:54;43.23;;;16.53;;
16624;SDS011;8426;48.496;9.098;2022-12-18T15:42:58;36.30;;;13.63;;
16624;SDS011;8426;48.496;9.098;2022-12-18T15:48:20;36.33;;;13.97;;
16624;SDS011;8426;48.496;9.098;2022-12-18T15:53:26;41.07;;;17.03;;
16624;SDS011;8426;48.496;9.098;2022-12-18T15:58:34;51.60;;;17.20;;
16624;SDS011;8426;48.496;9.098;2022-12-18T16:03:37;40.23;;;15.47;;
16624;SDS011;8426;48.496;9.098;2022-12-18T16:08:42;46.50;;;17.77;;
16624;SDS011;8426;48.496;9.098;2022-12-18T16:13:47;39.53;;;16.07;;
16624;SDS011;8426;48.496;9.098;2022-12-18T16:18:52;43.97;;;17.00;;
16624;SDS011;8426;48.496;9.098;2022-12-18T16:23:55;47.47;;;16.83;;
16624;SDS011;8426;48.496;9.098;2022-12-18T16:29:00;42.20;;;15.83;;
16624;SDS011;8426;48.496;9.098;2022-12-18T16:34:10;42.37;;;16.80;;
16624;SDS011;8426;48.496;9.098;2022-12-18T16:39:24;47.23;;;15.90;;
16624;SDS011;8426;48.496;9.098;2022-12-18T16:44:33;40.23;;;14.53;;
16624;SDS011;8426;48.496;9.098;2022-12-18T16:49:37;36.63;;;14.43;;
16624;SDS011;8426;48.496;9.098;2022-12-18T16:54:41;40.47;;;15.43;;
16624;SDS011;8426;48.496;9.098;2022-12-18T16:59:47;45.93;;;16.77;;
16624;SDS011;8426;48.496;9.098;2022-12-18T17:04:52;38.80;;;15.87;;
16624;SDS011;8426;48.496;9.098;2022-12-18T17:09:56;54.50;;;18.03;;
16624;SDS011;8426;48.496;9.098;2022-12-18T17:15:00;38.97;;;15.27;;
16624;SDS011;8426;48.496;9.098;2022-12-18T17:20:04;44.30;;;18.47;;
16624;SDS011;8426;48.496;9.098;2022-12-18T17:25:08;48.63;;;20.40;;
16624;SDS011;8426;48.496;9.098;2022-12-18T17:30:13;54.50;;;20.17;;
16624;SDS011;8426;48.496;9.098;2022-12-18T17:35:17;49.33;;;20.17;;
16624;SDS011;8426;48.496;9.098;2022-12-18T17:40:20;49.50;;;20.07;;
16624;SDS011;8426;48.496;9.098;2022-12-18T17:45:25;58.93;;;22.13;;
16624;SDS011;8426;48.496;9.098;2022-12-18T17:50:29;55.93;;;20.63;;
16624;SDS011;8426;48.496;9.098;2022-12-18T17:55:34;56.90;;;23.23;;
16624;SDS011;8426;48.496;9.098;2022-12-18T18:00:39;50.63;;;19.50;;
16624;SDS011;8426;48.496;9.098;2022-12-18T18:05:42;56.73;;;22.07;;
16624;SDS011;8426;48.496;9.098;2022-12-18T18:10:47;55.60;;;22.13;;
16624;SDS011;8426;48.496;9.098;2022-12-18T18:15:55;61.43;;;22.00;;
16624;SDS011;8426;48.496;9.098;2022-12-18T18:21:03;53.70;;;21.37;;
16624;SDS011;8426;48.496;9.098;2022-12-18T18:26:07;47.27;;;18.93;;
16624;SDS011;8426;48.496;9.098;2022-12-18T18:31:13;41.20;;;16.80;;
16624;SDS011;8426;48.496;9.098;2022-12-18T18:36:16;48.47;;;18.17;;
16624;SDS011;8426;48.496;9.098;2022-12-18T18:41:20;43.00;;;18.10;;
16624;SDS011;8426;48.496;9.098;2022-12-18T18:46:26;54.00;;;19.60;;
16624;SDS011;8426;48.496;9.098;2022-12-18T18:51:30;45.83;;;17.67;;
16624;SDS011;8426;48.496;9.098;2022-12-18T18:56:36;72.15;;;30.98;;
16624;SDS011;8426;48.496;9.098;2022-12-18T19:02:01;55.40;;;20.13;;
16624;SDS011;8426;48.496;9.098;2022-12-18T19:07:05;42.87;;;17.97;;
16624;SDS011;8426;48.496;9.098;2022-12-18T19:12:09;50.03;;;19.43;;
16624;SDS011;8426;48.496;9.098;2022-12-18T19:17:31;52.47;;;19.53;;
16624;SDS011;8426;48.496;9.098;2022-12-18T19:22:35;45.90;;;17.87;;
16624;SDS011;8426;48.496;9.098;2022-12-18T19:27:39;56.17;;;17.97;;
16624;SDS011;8426;48.496;9.098;2022-12-18T19:32:45;42.27;;;18.23;;
16624;SDS011;8426;48.496;9.098;2022-12-18T19:37:51;50.17;;;18.73;;
16624;SDS011;8426;48.496;9.098;2022-12-18T19:42:54;78.27;;;24.33;;
16624;SDS011;8426;48.496;9.098;2022-12-18T19:47:59;71.63;;;26.53;;
16624;SDS011;8426;48.496;9.098;2022-12-18T19:53:05;65.60;;;24.53;;
16624;SDS011;8426;48.496;9.098;2022-12-18T19:58:10;51.83;;;19.97;;
16624;SDS011;8426;48.496;9.098;2022-12-18T20:03:14;53.17;;;21.07;;
16624;SDS011;8426;48.496;9.098;2022-12-18T20:08:31;48.13;;;19.30;;
16624;SDS011;8426;48.496;9.098;2022-12-18T20:13:35;55.50;;;19.67;;
16624;SDS011;8426;48.496;9.098;2022-12-18T20:18:40;49.80;;;18.63;;
16624;SDS011;8426;48.496;9.098;2022-12-18T20:23:44;48.93;;;18.50;;
16624;SDS011;8426;48.496;9.098;2022-12-18T20:28:47;50.57;;;18.43;;
16624;SDS011;8426;48.496;9.098;2022-12-18T20:33:54;69.80;;;21.63;;
16624;SDS011;8426;48.496;9.098;2022-12-18T20:39:02;57.77;;;22.23;;
16624;SDS011;8426;48.496;9.098;2022-12-18T20:44:10;53.90;;;19.03;;
16624;SDS011;8426;48.496;9.098;2022-12-18T20:49:25;50.20;;;17.80;;
16624;SDS011;8426;48.496;9.098;2022-12-18T20:54:29;54.87;;;18.83;;
16624;SDS011;8426;48.496;9.098;2022-12-18T20:59:33;52.23;;;20.90;;
16624;SDS011;8426;48.496;9.098;2022-12-18T21:04:38;47.37;;;20.40;;
16624;SDS011;8426;48.496;9.098;2022-12-18T21:09:41;45.00;;;19.33;;
16624;SDS011;8426;48.496;9.098;2022-12-18T21:14:45;53.43;;;21.13;;
16624;SDS011;8426;48.496;9.098;2022-12-18T21:19:51;60.97;;;21.90;;
16624;SDS011;8426;48.496;9.098;2022-12-18T21:24:55;50.50;;;19.70;;
16624;SDS011;8426;48.496;9.098;2022-12-18T21:29:58;52.40;;;20.67;;
16624;SDS011;8426;48.496;9.098;2022-12-18T21:35:04;52.47;;;20.93;;
16624;SDS011;8426;48.496;9.098;2022-12-18T21:40:08;43.50;;;17.40;;
16624;SDS011;8426;48.496;9.098;2022-12-18T21:45:13;52.47;;;19.90;;
16624;SDS011;8426;48.496;9.098;2022-12-18T21:50:18;51.37;;;19.77;;
16624;SDS011;8426;48.496;9.098;2022-12-18T21:55:21;51.27;;;21.10;;
16624;SDS011;8426;48.496;9.098;2022-12-18T22:00:24;52.83;;;21.13;;
16624;SDS011;8426;48.496;9.098;2022-12-18T22:05:29;52.40;;;19.40;;
16624;SDS011;8426;48.496;9.098;2022-12-18T22:10:32;55.10;;;19.67;;
16624;SDS011;8426;48.496;9.098;2022-12-18T22:15:36;58.00;;;21.10;;
16624;SDS011;8426;48.496;9.098;2022-12-18T22:20:41;49.90;;;18.80;;
16624;SDS011;8426;48.496;9.098;2022-12-18T22:25:44;50.10;;;19.77;;
16624;SDS011;8426;48.496;9.098;2022-12-18T22:30:47;43.53;;;19.20;;
16624;SDS011;8426;48.496;9.098;2022-12-18T22:35:58;49.97;;;18.33;;
16624;SDS011;8426;48.496;9.098;2022-12-18T22:41:06;52.17;;;20.43;;
16624;SDS011;8426;48.496;9.098;2022-12-18T22:46:09;41.30;;;16.53;;
16624;SDS011;8426;48.496;9.098;2022-12-18T22:51:18;43.40;;;17.50;;
16624;SDS011;8426;48.496;9.098;2022-12-18T22:56:22;49.50;;;18.93;;
16624;SDS011;8426;48.496;9.098;2022-12-18T23:01:27;49.13;;;18.03;;
16624;SDS011;8426;48.496;9.098;2022-12-18T23:06:34;50.40;;;18.23;;
16624;SDS011;8426;48.496;9.098;2022-12-18T23:11:37;47.00;;;18.23;;
16624;SDS011;8426;48.496;9.098;2022-12-18T23:16:40;46.70;;;17.73;;
16624;SDS011;8426;48.496;9.098;2022-12-18T23:21:47;51.30;;;19.10;;
16624;SDS011;8426;48.496;9.098;2022-12-18T23:26:51;57.60;;;21.43;;
16624;SDS011;8426;48.496;9.098;2022-12-18T23:31:54;60.10;;;21.17;;
16624;SDS011;8426;48.496;9.098;2022-12-18T23:36:59;49.20;;;16.83;;
16624;SDS011;8426;48.496;9.098;2022-12-18T23:42:04;47.13;;;17.63;;
16624;SDS011;8426;48.496;9.098;2022-12-18T23:47:07;47.33;;;17.53;;
16624;SDS011;8426;48.496;9.098;2022-12-18T23:52:13;50.90;;;17.73;;
16624;SDS011;8426;48.496;9.098;2022-12-18T23:57:16;55.60;;;19.10;;
